sensor_id;sensor_type;location;lat;lon;timestamp;pressure;altitude;pressure_sealevel;temperature;humidity
56912;BME280;42800;53.928;27.662;2023-06-26T00:02:10;97849.97;;;17.59;100.00
56912;BME280;42800;53.928;27.662;2023-06-26T00:04:36;97841.47;;;17.53;100.00
56912;BME280;42800;53.928;27.662;2023-06-26T00:07:03;97842.47;;;17.59;100.00
56912;BME280;42800;53.928;27.662;2023-06-26T00:09:29;97851.75;;;17.65;100.00
56912;BME280;42800;53.928;27.662;2023-06-26T00:11:55;97844.66;;;17.64;100.00
56912;BME280;42800;53.928;27.662;2023-06-26T00:14:21;97839.00;;;17.68;100.00
56912;BME280;42800;53.928;27.662;2023-06-26T00:16:47;97846.88;;;17.70;100.00
56912;BME280;42800;53.928;27.662;2023-06-26T00:19:14;97850.88;;;17.81;100.00
56912;BME280;42800;53.928;27.662;2023-06-26T00:21:40;97860.53;;;17.90;100.00
56912;BME280;42800;53.928;27.662;2023-06-26T00:24:06;97859.19;;;17.81;100.00
56912;BME280;42800;53.928;27.662;2023-06-26T00:26:33;97854.78;;;17.84;100.00
56912;BME280;42800;53.928;27.662;2023-06-26T00:28:59;97869.50;;;17.94;100.00
56912;BME280;42800;53.928;27.662;2023-06-26T00:31:25;97859.19;;;17.94;100.00
56912;BME280;42800;53.928;27.662;2023-06-26T00:33:51;97846.56;;;17.93;100.00
56912;BME280;42800;53.928;27.662;2023-06-26T00:36:17;97845.22;;;17.98;100.00
56912;BME280;42800;53.928;27.662;2023-06-26T00:38:42;97858.53;;;18.03;100.00
56912;BME280;42800;53.928;27.662;2023-06-26T00:41:08;97849.09;;;18.00;100.00
56912;BME280;42800;53.928;27.662;2023-06-26T00:43:38;97827.59;;;17.92;100.00
56912;BME280;42800;53.928;27.662;2023-06-26T00:46:08;97841.00;;;17.93;100.00
56912;BME280;42800;53.928;27.662;2023-06-26T00:48:34;97836.00;;;17.88;100.00
56912;BME280;42800;53.928;27.662;2023-06-26T00:51:00;97821.16;;;17.82;100.00
56912;BME280;42800;53.928;27.662;2023-06-26T00:53:27;97826.16;;;17.74;100.00
56912;BME280;42800;53.928;27.662;2023-06-26T00:55:53;97825.56;;;17.92;100.00
56912;BME280;42800;53.928;27.662;2023-06-26T00:58:21;97822.03;;;17.92;100.00
56912;BME280;42800;53.928;27.662;2023-06-26T01:00:50;97818.84;;;17.93;100.00
56912;BME280;42800;53.928;27.662;2023-06-26T01:03:16;97812.50;;;17.93;100.00
56912;BME280;42800;53.928;27.662;2023-06-26T01:05:42;97810.69;;;17.99;100.00
56912;BME280;42800;53.928;27.662;2023-06-26T01:08:11;97810.91;;;18.04;100.00
56912;BME280;42800;53.928;27.662;2023-06-26T01:10:38;97795.28;;;17.98;100.00
56912;BME280;42800;53.928;27.662;2023-06-26T01:13:04;97794.56;;;17.84;100.00
56912;BME280;42800;53.928;27.662;2023-06-26T01:15:30;97796.22;;;17.82;100.00
56912;BME280;42800;53.928;27.662;2023-06-26T01:17:58;97782.34;;;17.82;100.00
56912;BME280;42800;53.928;27.662;2023-06-26T01:20:29;97784.81;;;17.80;100.00
56912;BME280;42800;53.928;27.662;2023-06-26T01:23:05;97776.38;;;17.83;100.00
56912;BME280;42800;53.928;27.662;2023-06-26T01:25:37;97783.13;;;17.82;100.00
56912;BME280;42800;53.928;27.662;2023-06-26T01:28:08;97783.03;;;17.86;100.00
56912;BME280;42800;53.928;27.662;2023-06-26T01:30:37;97781.34;;;17.76;100.00
56912;BME280;42800;53.928;27.662;2023-06-26T01:33:04;97779.94;;;17.58;100.00
56912;BME280;42800;53.928;27.662;2023-06-26T01:35:30;97789.06;;;17.46;100.00
56912;BME280;42800;53.928;27.662;2023-06-26T01:38:11;97790.94;;;17.24;100.00
56912;BME280;42800;53.928;27.662;2023-06-26T01:40:37;97792.78;;;17.52;100.00
56912;BME280;42800;53.928;27.662;2023-06-26T01:43:04;97786.94;;;17.63;100.00
56912;BME280;42800;53.928;27.662;2023-06-26T01:45:32;97790.66;;;17.69;100.00
56912;BME280;42800;53.928;27.662;2023-06-26T01:48:01;97784.50;;;17.39;100.00
56912;BME280;42800;53.928;27.662;2023-06-26T01:50:30;97786.81;;;17.41;100.00
56912;BME280;42800;53.928;27.662;2023-06-26T01:53:02;97783.72;;;17.52;100.00
56912;BME280;42800;53.928;27.662;2023-06-26T01:55:32;97778.94;;;17.65;100.00
56912;BME280;42800;53.928;27.662;2023-06-26T01:58:01;97780.94;;;17.64;100.00
56912;BME280;42800;53.928;27.662;2023-06-26T02:00:28;97771.94;;;17.73;100.00
56912;BME280;42800;53.928;27.662;2023-06-26T02:02:55;97783.72;;;17.77;100.00
56912;BME280;42800;53.928;27.662;2023-06-26T02:05:21;97773.59;;;17.83;100.00
56912;BME280;42800;53.928;27.662;2023-06-26T02:07:49;97776.38;;;17.83;100.00
56912;BME280;42800;53.928;27.662;2023-06-26T02:10:15;97777.59;;;17.82;100.00
56912;BME280;42800;53.928;27.662;2023-06-26T02:12:41;97770.97;;;17.80;100.00
56912;BME280;42800;53.928;27.662;2023-06-26T02:15:08;97779.03;;;17.87;100.00
56912;BME280;42800;53.928;27.662;2023-06-26T02:17:34;97779.03;;;17.61;100.00
56912;BME280;42800;53.928;27.662;2023-06-26T02:20:01;97778.81;;;17.56;100.00
56912;BME280;42800;53.928;27.662;2023-06-26T02:22:27;97779.28;;;17.54;100.00
56912;BME280;42800;53.928;27.662;2023-06-26T02:24:54;97789.13;;;17.42;100.00
56912;BME280;42800;53.928;27.662;2023-06-26T02:27:20;97773.50;;;17.61;100.00
56912;BME280;42800;53.928;27.662;2023-06-26T02:29:46;97779.06;;;17.49;100.00
56912;BME280;42800;53.928;27.662;2023-06-26T02:32:11;97780.28;;;17.60;100.00
56912;BME280;42800;53.928;27.662;2023-06-26T02:34:37;97792.81;;;17.39;100.00
56912;BME280;42800;53.928;27.662;2023-06-26T02:37:04;97781.38;;;17.63;100.00
56912;BME280;42800;53.928;27.662;2023-06-26T02:39:32;97774.38;;;17.71;100.00
56912;BME280;42800;53.928;27.662;2023-06-26T02:41:58;97765.19;;;17.61;100.00
56912;BME280;42800;53.928;27.662;2023-06-26T02:44:24;97762.31;;;17.78;100.00
56912;BME280;42800;53.928;27.662;2023-06-26T02:46:50;97775.28;;;17.55;100.00
56912;BME280;42800;53.928;27.662;2023-06-26T02:49:16;97766.41;;;17.60;100.00
56912;BME280;42800;53.928;27.662;2023-06-26T02:51:42;97774.16;;;17.65;100.00
56912;BME280;42800;53.928;27.662;2023-06-26T02:54:08;97765.06;;;17.65;100.00
56912;BME280;42800;53.928;27.662;2023-06-26T02:56:34;97772.44;;;17.46;100.00
56912;BME280;42800;53.928;27.662;2023-06-26T02:59:00;97772.75;;;17.48;100.00
56912;BME280;42800;53.928;27.662;2023-06-26T03:01:26;97790.94;;;17.36;100.00
56912;BME280;42800;53.928;27.662;2023-06-26T03:03:52;97782.81;;;17.42;100.00
56912;BME280;42800;53.928;27.662;2023-06-26T03:06:18;97787.72;;;17.51;100.00
56912;BME280;42800;53.928;27.662;2023-06-26T03:08:44;97796.03;;;17.51;100.00
56912;BME280;42800;53.928;27.662;2023-06-26T03:11:10;97783.47;;;17.59;100.00
56912;BME280;42800;53.928;27.662;2023-06-26T03:13:37;97786.25;;;17.59;100.00
56912;BME280;42800;53.928;27.662;2023-06-26T03:16:03;97773.28;;;17.56;100.00
56912;BME280;42800;53.928;27.662;2023-06-26T03:18:29;97786.03;;;17.53;100.00
56912;BME280;42800;53.928;27.662;2023-06-26T03:20:56;97776.28;;;17.61;100.00
56912;BME280;42800;53.928;27.662;2023-06-26T03:23:23;97772.50;;;17.68;100.00
56912;BME280;42800;53.928;27.662;2023-06-26T03:25:49;97777.91;;;17.72;100.00
56912;BME280;42800;53.928;27.662;2023-06-26T03:28:16;97778.81;;;17.81;100.00
56912;BME280;42800;53.928;27.662;2023-06-26T03:30:42;97769.94;;;17.74;100.00
56912;BME280;42800;53.928;27.662;2023-06-26T03:33:08;97766.19;;;17.68;100.00
56912;BME280;42800;53.928;27.662;2023-06-26T03:35:34;97776.28;;;17.49;100.00
56912;BME280;42800;53.928;27.662;2023-06-26T03:38:01;97788.16;;;17.36;100.00
56912;BME280;42800;53.928;27.662;2023-06-26T03:40:27;97789.94;;;17.43;100.00
56912;BME280;42800;53.928;27.662;2023-06-26T03:42:53;97802.09;;;17.46;100.00
56912;BME280;42800;53.928;27.662;2023-06-26T03:45:19;97811.41;;;17.39;100.00
56912;BME280;42800;53.928;27.662;2023-06-26T03:47:46;97800.97;;;17.56;100.00
56912;BME280;42800;53.928;27.662;2023-06-26T03:50:14;97820.28;;;17.34;100.00
56912;BME280;42800;53.928;27.662;2023-06-26T03:52:40;97804.22;;;17.54;100.00
56912;BME280;42800;53.928;27.662;2023-06-26T03:55:06;97801.31;;;17.58;100.00
56912;BME280;42800;53.928;27.662;2023-06-26T03:57:32;97793.78;;;17.71;100.00
56912;BME280;42800;53.928;27.662;2023-06-26T03:59:58;97786.34;;;17.68;100.00
56912;BME280;42800;53.928;27.662;2023-06-26T04:02:24;97794.91;;;17.61;100.00
56912;BME280;42800;53.928;27.662;2023-06-26T04:04:50;97805.09;;;17.64;100.00
56912;BME280;42800;53.928;27.662;2023-06-26T04:07:17;97806.31;;;17.63;100.00
56912;BME280;42800;53.928;27.662;2023-06-26T04:09:43;97829.50;;;17.56;100.00
56912;BME280;42800;53.928;27.662;2023-06-26T04:12:09;97819.72;;;17.64;100.00
56912;BME280;42800;53.928;27.662;2023-06-26T04:14:35;97825.84;;;17.59;100.00
56912;BME280;42800;53.928;27.662;2023-06-26T04:17:02;97843.66;;;17.46;100.00
56912;BME280;42800;53.928;27.662;2023-06-26T04:19:29;97830.69;;;17.55;100.00
56912;BME280;42800;53.928;27.662;2023-06-26T04:21:55;97817.19;;;17.70;100.00
56912;BME280;42800;53.928;27.662;2023-06-26T04:24:21;97815.94;;;17.71;100.00
56912;BME280;42800;53.928;27.662;2023-06-26T04:26:47;97803.50;;;17.76;100.00
56912;BME280;42800;53.928;27.662;2023-06-26T04:29:13;97780.66;;;17.97;100.00
56912;BME280;42800;53.928;27.662;2023-06-26T04:31:39;97778.41;;;18.40;100.00
56912;BME280;42800;53.928;27.662;2023-06-26T04:34:05;97735.38;;;19.19;100.00
56912;BME280;42800;53.928;27.662;2023-06-26T04:36:32;97809.13;;;20.10;100.00
56912;BME280;42800;53.928;27.662;2023-06-26T04:38:58;97923.66;;;20.86;100.00
56912;BME280;42800;53.928;27.662;2023-06-26T04:41:24;98041.88;;;21.12;100.00
56912;BME280;42800;53.928;27.662;2023-06-26T04:43:51;98112.88;;;21.57;100.00
56912;BME280;42800;53.928;27.662;2023-06-26T04:46:17;98155.19;;;21.56;100.00
56912;BME280;42800;53.928;27.662;2023-06-26T04:48:43;98209.47;;;22.19;100.00
56912;BME280;42800;53.928;27.662;2023-06-26T04:51:10;98241.53;;;22.33;100.00
56912;BME280;42800;53.928;27.662;2023-06-26T04:53:36;98262.94;;;22.27;100.00
56912;BME280;42800;53.928;27.662;2023-06-26T04:56:02;98197.91;;;21.44;100.00
56912;BME280;42800;53.928;27.662;2023-06-26T04:58:28;98204.94;;;22.31;100.00
56912;BME280;42800;53.928;27.662;2023-06-26T05:00:54;98300.31;;;23.36;100.00
56912;BME280;42800;53.928;27.662;2023-06-26T05:03:21;98372.97;;;24.12;100.00
56912;BME280;42800;53.928;27.662;2023-06-26T05:05:47;98375.19;;;23.84;100.00
56912;BME280;42800;53.928;27.662;2023-06-26T05:08:14;98374.47;;;24.22;100.00
56912;BME280;42800;53.928;27.662;2023-06-26T05:10:41;98392.16;;;24.28;100.00
56912;BME280;42800;53.928;27.662;2023-06-26T05:13:07;98432.66;;;24.75;100.00
56912;BME280;42800;53.928;27.662;2023-06-26T05:15:33;98446.59;;;25.23;100.00
56912;BME280;42800;53.928;27.662;2023-06-26T05:18:07;98447.97;;;25.43;100.00
56912;BME280;42800;53.928;27.662;2023-06-26T05:20:34;98464.69;;;25.37;100.00
56912;BME280;42800;53.928;27.662;2023-06-26T05:23:00;98466.84;;;25.57;100.00
56912;BME280;42800;53.928;27.662;2023-06-26T05:25:27;98473.63;;;25.80;100.00
56912;BME280;42800;53.928;27.662;2023-06-26T05:27:55;98467.22;;;26.09;100.00
56912;BME280;42800;53.928;27.662;2023-06-26T05:30:21;98473.59;;;25.95;100.00
56912;BME280;42800;53.928;27.662;2023-06-26T05:32:48;98456.38;;;25.57;100.00
56912;BME280;42800;53.928;27.662;2023-06-26T05:35:16;98469.34;;;25.40;100.00
56912;BME280;42800;53.928;27.662;2023-06-26T05:37:42;98456.88;;;25.26;100.00
56912;BME280;42800;53.928;27.662;2023-06-26T05:40:09;98451.19;;;24.97;100.00
56912;BME280;42800;53.928;27.662;2023-06-26T05:42:36;98423.38;;;24.45;100.00
56912;BME280;42800;53.928;27.662;2023-06-26T05:45:02;98401.91;;;24.42;100.00
56912;BME280;42800;53.928;27.662;2023-06-26T05:47:28;98401.25;;;24.23;100.00
56912;BME280;42800;53.928;27.662;2023-06-26T05:49:54;98404.53;;;24.46;100.00
56912;BME280;42800;53.928;27.662;2023-06-26T05:52:21;98409.63;;;24.71;100.00
56912;BME280;42800;53.928;27.662;2023-06-26T05:54:48;98400.06;;;24.63;100.00
56912;BME280;42800;53.928;27.662;2023-06-26T05:57:15;98420.28;;;25.50;100.00
56912;BME280;42800;53.928;27.662;2023-06-26T05:59:43;98438.78;;;25.87;100.00
56912;BME280;42800;53.928;27.662;2023-06-26T06:02:09;98431.78;;;25.67;100.00
56912;BME280;42800;53.928;27.662;2023-06-26T06:04:35;98431.69;;;25.91;100.00
56912;BME280;42800;53.928;27.662;2023-06-26T06:07:02;98444.53;;;26.13;100.00
56912;BME280;42800;53.928;27.662;2023-06-26T06:09:29;98441.75;;;25.98;100.00
56912;BME280;42800;53.928;27.662;2023-06-26T06:11:55;98427.34;;;25.46;100.00
56912;BME280;42800;53.928;27.662;2023-06-26T06:14:21;98416.53;;;25.24;100.00
56912;BME280;42800;53.928;27.662;2023-06-26T06:16:47;98416.31;;;25.42;100.00
56912;BME280;42800;53.928;27.662;2023-06-26T06:19:13;98431.22;;;25.33;100.00
56912;BME280;42800;53.928;27.662;2023-06-26T06:21:39;98431.50;;;25.65;100.00
56912;BME280;42800;53.928;27.662;2023-06-26T06:24:05;98434.81;;;25.64;100.00
56912;BME280;42800;53.928;27.662;2023-06-26T06:26:32;98442.16;;;25.31;100.00
56912;BME280;42800;53.928;27.662;2023-06-26T06:28:58;98447.09;;;25.51;100.00
56912;BME280;42800;53.928;27.662;2023-06-26T06:31:24;98440.03;;;25.56;100.00
56912;BME280;42800;53.928;27.662;2023-06-26T06:33:50;98463.91;;;26.11;100.00
56912;BME280;42800;53.928;27.662;2023-06-26T06:36:16;98471.94;;;26.53;97.44
56912;BME280;42800;53.928;27.662;2023-06-26T06:38:42;98482.84;;;26.66;93.30
56912;BME280;42800;53.928;27.662;2023-06-26T06:41:09;98490.91;;;26.58;90.21
56912;BME280;42800;53.928;27.662;2023-06-26T06:43:35;98505.28;;;27.48;87.39
56912;BME280;42800;53.928;27.662;2023-06-26T06:46:01;98515.75;;;28.31;77.60
56912;BME280;42800;53.928;27.662;2023-06-26T06:48:27;98525.75;;;28.75;72.78
56912;BME280;42800;53.928;27.662;2023-06-26T06:50:53;98529.53;;;29.03;69.60
56912;BME280;42800;53.928;27.662;2023-06-26T06:53:19;98532.31;;;29.74;66.47
56912;BME280;42800;53.928;27.662;2023-06-26T06:55:45;98531.56;;;30.36;64.28
56912;BME280;42800;53.928;27.662;2023-06-26T06:58:12;98532.03;;;30.79;62.53
56912;BME280;42800;53.928;27.662;2023-06-26T07:00:38;98528.88;;;30.88;61.91
56912;BME280;42800;53.928;27.662;2023-06-26T07:03:04;98535.41;;;30.50;57.63
56912;BME280;42800;53.928;27.662;2023-06-26T07:05:30;98533.78;;;30.88;57.25
56912;BME280;42800;53.928;27.662;2023-06-26T07:07:56;98541.75;;;31.48;55.05
56912;BME280;42800;53.928;27.662;2023-06-26T07:10:22;98534.50;;;31.58;54.95
56912;BME280;42800;53.928;27.662;2023-06-26T07:12:48;98530.66;;;31.97;56.27
56912;BME280;42800;53.928;27.662;2023-06-26T07:15:13;98529.06;;;32.01;55.67
56912;BME280;42800;53.928;27.662;2023-06-26T07:17:41;98534.41;;;32.10;54.94
56912;BME280;42800;53.928;27.662;2023-06-26T07:20:07;98535.31;;;32.24;54.69
56912;BME280;42800;53.928;27.662;2023-06-26T07:22:35;98535.59;;;31.85;55.74
56912;BME280;42800;53.928;27.662;2023-06-26T07:25:02;98534.81;;;31.84;54.36
56912;BME280;42800;53.928;27.662;2023-06-26T07:27:29;98532.13;;;32.33;54.66
56912;BME280;42800;53.928;27.662;2023-06-26T07:29:55;98525.31;;;32.18;54.41
56912;BME280;42800;53.928;27.662;2023-06-26T07:32:21;98528.38;;;31.90;55.02
56912;BME280;42800;53.928;27.662;2023-06-26T07:34:47;98526.69;;;32.05;54.96
56912;BME280;42800;53.928;27.662;2023-06-26T07:37:13;98530.22;;;32.42;53.07
56912;BME280;42800;53.928;27.662;2023-06-26T07:39:39;98521.50;;;32.40;52.85
56912;BME280;42800;53.928;27.662;2023-06-26T07:42:05;98520.88;;;31.51;54.56
56912;BME280;42800;53.928;27.662;2023-06-26T07:44:31;98517.19;;;30.22;55.88
56912;BME280;42800;53.928;27.662;2023-06-26T07:46:57;98516.91;;;29.81;58.17
56912;BME280;42800;53.928;27.662;2023-06-26T07:49:23;98519.72;;;29.64;59.09
56912;BME280;42800;53.928;27.662;2023-06-26T07:51:49;98519.69;;;28.88;60.23
56912;BME280;42800;53.928;27.662;2023-06-26T07:54:15;98513.25;;;29.52;59.88
56912;BME280;42800;53.928;27.662;2023-06-26T07:56:55;98508.69;;;29.89;59.07
56912;BME280;42800;53.928;27.662;2023-06-26T07:59:21;98514.34;;;29.66;58.76
56912;BME280;42800;53.928;27.662;2023-06-26T08:01:47;98511.25;;;29.92;58.53
56912;BME280;42800;53.928;27.662;2023-06-26T08:04:14;98515.09;;;30.40;56.69
56912;BME280;42800;53.928;27.662;2023-06-26T08:06:40;98511.75;;;30.41;56.14
56912;BME280;42800;53.928;27.662;2023-06-26T08:09:06;98510.75;;;29.77;56.92
56912;BME280;42800;53.928;27.662;2023-06-26T08:11:33;98504.31;;;29.93;56.62
56912;BME280;42800;53.928;27.662;2023-06-26T08:13:59;98506.34;;;30.43;57.05
56912;BME280;42800;53.928;27.662;2023-06-26T08:16:25;98509.19;;;30.43;54.24
56912;BME280;42800;53.928;27.662;2023-06-26T08:18:51;98509.97;;;31.19;51.38
56912;BME280;42800;53.928;27.662;2023-06-26T08:21:17;98508.78;;;31.50;50.94
56912;BME280;42800;53.928;27.662;2023-06-26T08:23:43;98505.38;;;31.63;51.73
56912;BME280;42800;53.928;27.662;2023-06-26T08:26:09;98510.84;;;31.85;50.01
56912;BME280;42800;53.928;27.662;2023-06-26T08:28:35;98504.47;;;31.79;48.28
56912;BME280;42800;53.928;27.662;2023-06-26T08:31:01;98502.03;;;31.59;47.94
56912;BME280;42800;53.928;27.662;2023-06-26T08:33:28;98496.84;;;32.59;48.55
56912;BME280;42800;53.928;27.662;2023-06-26T08:35:54;98495.59;;;32.24;47.96
56912;BME280;42800;53.928;27.662;2023-06-26T08:38:20;98488.41;;;32.97;46.69
56912;BME280;42800;53.928;27.662;2023-06-26T08:40:46;98495.00;;;33.24;47.12
56912;BME280;42800;53.928;27.662;2023-06-26T08:43:13;98497.31;;;33.25;47.88
56912;BME280;42800;53.928;27.662;2023-06-26T08:45:39;98492.66;;;32.85;47.77
56912;BME280;42800;53.928;27.662;2023-06-26T08:48:07;98492.38;;;33.83;46.93
56912;BME280;42800;53.928;27.662;2023-06-26T08:50:34;98496.00;;;33.26;47.80
56912;BME280;42800;53.928;27.662;2023-06-26T08:53:04;98489.97;;;33.87;47.75
56912;BME280;42800;53.928;27.662;2023-06-26T08:55:33;98480.47;;;32.41;49.65
56912;BME280;42800;53.928;27.662;2023-06-26T08:58:01;98482.53;;;32.46;50.34
56912;BME280;42800;53.928;27.662;2023-06-26T09:00:28;98484.66;;;32.09;50.66
56912;BME280;42800;53.928;27.662;2023-06-26T09:02:55;98476.00;;;32.26;50.91
56912;BME280;42800;53.928;27.662;2023-06-26T09:05:21;98478.78;;;31.25;51.11
56912;BME280;42800;53.928;27.662;2023-06-26T09:07:47;98477.66;;;31.80;49.61
56912;BME280;42800;53.928;27.662;2023-06-26T09:10:13;98468.78;;;31.95;49.89
56912;BME280;42800;53.928;27.662;2023-06-26T09:12:39;98470.94;;;31.01;48.96
56912;BME280;42800;53.928;27.662;2023-06-26T09:15:06;98464.88;;;30.80;48.26
56912;BME280;42800;53.928;27.662;2023-06-26T09:17:38;98475.00;;;31.11;48.14
56912;BME280;42800;53.928;27.662;2023-06-26T09:20:04;98474.97;;;31.99;47.60
56912;BME280;42800;53.928;27.662;2023-06-26T09:22:36;98465.19;;;31.59;48.50
56912;BME280;42800;53.928;27.662;2023-06-26T09:25:02;98467.69;;;30.74;49.79
56912;BME280;42800;53.928;27.662;2023-06-26T09:27:29;98462.56;;;31.25;49.05
56912;BME280;42800;53.928;27.662;2023-06-26T09:29:56;98458.63;;;31.75;48.95
56912;BME280;42800;53.928;27.662;2023-06-26T09:32:24;98457.72;;;31.61;49.59
56912;BME280;42800;53.928;27.662;2023-06-26T09:34:52;98457.03;;;32.40;49.09
56912;BME280;42800;53.928;27.662;2023-06-26T09:37:18;98453.53;;;31.68;49.20
56912;BME280;42800;53.928;27.662;2023-06-26T09:39:45;98451.59;;;30.35;49.96
56912;BME280;42800;53.928;27.662;2023-06-26T09:42:13;98447.31;;;29.84;50.73
56912;BME280;42800;53.928;27.662;2023-06-26T09:44:43;98453.16;;;29.46;51.96
56912;BME280;42800;53.928;27.662;2023-06-26T09:47:09;98444.22;;;29.82;50.67
56912;BME280;42800;53.928;27.662;2023-06-26T09:49:35;98438.28;;;30.30;50.76
56912;BME280;42800;53.928;27.662;2023-06-26T09:52:02;98433.75;;;30.80;51.80
56912;BME280;42800;53.928;27.662;2023-06-26T09:54:28;98425.28;;;31.21;50.61
56912;BME280;42800;53.928;27.662;2023-06-26T09:56:55;98426.69;;;31.45;49.05
56912;BME280;42800;53.928;27.662;2023-06-26T09:59:21;98424.72;;;32.00;49.54
56912;BME280;42800;53.928;27.662;2023-06-26T10:01:48;98409.53;;;30.90;50.56
56912;BME280;42800;53.928;27.662;2023-06-26T10:04:14;98417.44;;;30.28;51.45
56912;BME280;42800;53.928;27.662;2023-06-26T10:06:42;98413.66;;;29.74;52.84
56912;BME280;42800;53.928;27.662;2023-06-26T10:09:12;98414.16;;;29.62;51.39
56912;BME280;42800;53.928;27.662;2023-06-26T10:11:42;98411.78;;;30.28;50.57
56912;BME280;42800;53.928;27.662;2023-06-26T10:14:13;98410.50;;;30.98;50.01
56912;BME280;42800;53.928;27.662;2023-06-26T10:16:41;98401.81;;;30.85;50.13
56912;BME280;42800;53.928;27.662;2023-06-26T10:19:10;98402.72;;;31.46;51.07
56912;BME280;42800;53.928;27.662;2023-06-26T10:21:38;98391.63;;;31.78;50.54
56912;BME280;42800;53.928;27.662;2023-06-26T10:24:06;98396.66;;;31.96;50.50
56912;BME280;42800;53.928;27.662;2023-06-26T10:26:36;98398.72;;;31.96;50.07
56912;BME280;42800;53.928;27.662;2023-06-26T10:29:03;98394.00;;;31.74;50.21
56912;BME280;42800;53.928;27.662;2023-06-26T10:31:32;98390.41;;;30.43;50.82
56912;BME280;42800;53.928;27.662;2023-06-26T10:33:58;98395.44;;;30.67;50.20
56912;BME280;42800;53.928;27.662;2023-06-26T10:36:28;98390.34;;;31.13;50.19
56912;BME280;42800;53.928;27.662;2023-06-26T10:38:55;98395.25;;;31.12;48.76
56912;BME280;42800;53.928;27.662;2023-06-26T10:41:22;98386.19;;;30.73;48.53
56912;BME280;42800;53.928;27.662;2023-06-26T10:43:50;98383.88;;;30.77;47.32
56912;BME280;42800;53.928;27.662;2023-06-26T10:46:18;98385.75;;;31.04;46.70
56912;BME280;42800;53.928;27.662;2023-06-26T10:48:56;98392.94;;;31.47;47.29
56912;BME280;42800;53.928;27.662;2023-06-26T10:51:22;98381.94;;;30.32;47.43
56912;BME280;42800;53.928;27.662;2023-06-26T10:53:50;98370.59;;;31.02;48.32
56912;BME280;42800;53.928;27.662;2023-06-26T10:56:19;98378.75;;;31.11;50.29
56912;BME280;42800;53.928;27.662;2023-06-26T10:58:44;98371.50;;;30.74;51.81
56912;BME280;42800;53.928;27.662;2023-06-26T11:01:21;98376.31;;;30.32;50.93
56912;BME280;42800;53.928;27.662;2023-06-26T11:03:49;98378.63;;;30.28;51.88
56912;BME280;42800;53.928;27.662;2023-06-26T11:06:18;98370.78;;;29.59;52.19
56912;BME280;42800;53.928;27.662;2023-06-26T11:08:44;98368.16;;;29.05;52.94
56912;BME280;42800;53.928;27.662;2023-06-26T11:11:11;98372.41;;;28.72;54.19
56912;BME280;42800;53.928;27.662;2023-06-26T11:13:37;98371.69;;;28.89;52.63
56912;BME280;42800;53.928;27.662;2023-06-26T11:16:03;98373.25;;;28.90;52.18
56912;BME280;42800;53.928;27.662;2023-06-26T11:18:32;98373.03;;;29.16;52.50
56912;BME280;42800;53.928;27.662;2023-06-26T11:21:04;98380.63;;;28.70;52.62
56912;BME280;42800;53.928;27.662;2023-06-26T11:23:32;98385.56;;;28.92;51.53
56912;BME280;42800;53.928;27.662;2023-06-26T11:26:12;98380.75;;;29.04;51.78
56912;BME280;42800;53.928;27.662;2023-06-26T11:28:38;98385.06;;;28.99;51.93
56912;BME280;42800;53.928;27.662;2023-06-26T11:31:04;98387.59;;;28.80;51.41
56912;BME280;42800;53.928;27.662;2023-06-26T11:33:31;98380.16;;;28.89;51.62
56912;BME280;42800;53.928;27.662;2023-06-26T11:36:08;98378.13;;;28.83;52.26
56912;BME280;42800;53.928;27.662;2023-06-26T11:38:37;98370.69;;;28.97;51.45
56912;BME280;42800;53.928;27.662;2023-06-26T11:41:03;98372.81;;;29.02;51.19
56912;BME280;42800;53.928;27.662;2023-06-26T11:43:30;98369.09;;;28.74;50.67
56912;BME280;42800;53.928;27.662;2023-06-26T11:45:56;98369.47;;;29.10;50.96
56912;BME280;42800;53.928;27.662;2023-06-26T11:48:25;98370.22;;;29.04;51.43
56912;BME280;42800;53.928;27.662;2023-06-26T11:50:51;98363.03;;;29.03;51.86
56912;BME280;42800;53.928;27.662;2023-06-26T11:53:17;98360.16;;;28.81;52.00
56912;BME280;42800;53.928;27.662;2023-06-26T11:55:43;98361.78;;;29.10;51.25
56912;BME280;42800;53.928;27.662;2023-06-26T11:58:09;98358.63;;;28.91;52.04
56912;BME280;42800;53.928;27.662;2023-06-26T12:00:35;98353.97;;;28.11;53.47
56912;BME280;42800;53.928;27.662;2023-06-26T12:03:06;98364.84;;;27.87;54.56
56912;BME280;42800;53.928;27.662;2023-06-26T12:05:35;98354.09;;;26.96;56.03
56912;BME280;42800;53.928;27.662;2023-06-26T12:08:02;98358.16;;;26.95;56.65
56912;BME280;42800;53.928;27.662;2023-06-26T12:10:32;98368.84;;;26.91;56.60
56912;BME280;42800;53.928;27.662;2023-06-26T12:12:58;98364.47;;;26.43;56.94
56912;BME280;42800;53.928;27.662;2023-06-26T12:15:28;98363.19;;;26.44;56.60
56912;BME280;42800;53.928;27.662;2023-06-26T12:17:54;98367.56;;;26.25;58.64
56912;BME280;42800;53.928;27.662;2023-06-26T12:20:21;98355.41;;;26.13;63.06
56912;BME280;42800;53.928;27.662;2023-06-26T12:22:48;98364.69;;;26.19;64.81
56912;BME280;42800;53.928;27.662;2023-06-26T12:25:16;98355.69;;;26.15;68.64
56912;BME280;42800;53.928;27.662;2023-06-26T12:27:46;98351.88;;;26.18;69.75
56912;BME280;42800;53.928;27.662;2023-06-26T12:30:12;98349.88;;;26.39;69.80
56912;BME280;42800;53.928;27.662;2023-06-26T12:32:38;98357.19;;;26.51;69.51
56912;BME280;42800;53.928;27.662;2023-06-26T12:35:05;98353.72;;;26.62;68.05
56912;BME280;42800;53.928;27.662;2023-06-26T12:37:36;98344.03;;;26.63;67.71
56912;BME280;42800;53.928;27.662;2023-06-26T12:40:04;98347.41;;;26.47;67.22
56912;BME280;42800;53.928;27.662;2023-06-26T12:42:33;98343.19;;;26.37;67.79
56912;BME280;42800;53.928;27.662;2023-06-26T12:44:59;98348.19;;;26.94;67.50